createdAt,value
2023-01-01T00:01:54.673Z,35.85
2023-01-01T00:04:24.897Z,7.13
2023-01-01T00:06:54.985Z,6.82
2023-01-01T00:09:37.536Z,6.65
2023-01-01T00:12:08.913Z,8.07
2023-01-01T00:14:44.406Z,6.85
2023-01-01T00:17:14.769Z,4.93
2023-01-01T00:19:44.875Z,5.72
2023-01-01T00:22:52.870Z,6.53
2023-01-01T00:25:05.064Z,4.78
2023-01-01T00:27:35.297Z,4.55
2023-01-01T00:30:09.741Z,3.85
2023-01-01T00:32:40.141Z,4.95
2023-01-01T00:35:12.496Z,3.17
2023-01-01T00:37:46.618Z,5.40
2023-01-01T00:40:17.025Z,3.05
2023-01-01T00:42:49.556Z,5.85
2023-01-01T00:45:23.030Z,3.72
2023-01-01T00:47:56.285Z,3.10
2023-01-01T00:50:26.974Z,6.25
2023-01-01T00:52:57.091Z,2.90
2023-01-01T00:55:27.176Z,18.17
2023-01-01T00:57:57.312Z,6.25
2023-01-01T01:00:30.152Z,3.88
2023-01-01T01:03:00.403Z,3.47
2023-01-01T01:05:32.583Z,3.53
2023-01-01T01:08:03.313Z,5.30
2023-01-01T01:10:33.377Z,3.95
2023-01-01T01:13:03.718Z,2.55
2023-01-01T01:15:36.429Z,2.85
2023-01-01T01:18:06.757Z,2.22
2023-01-01T01:20:36.947Z,1.80
2023-01-01T01:23:07.081Z,2.38
2023-01-01T01:25:37.250Z,2.05
2023-01-01T01:28:07.661Z,3.40
2023-01-01T01:30:41.084Z,2.90
2023-01-01T01:33:11.418Z,3.05
2023-01-01T01:35:41.533Z,2.55
2023-01-01T01:38:14.812Z,3.08
2023-01-01T01:40:46.023Z,2.45
2023-01-01T01:43:27.732Z,2.97
2023-01-01T01:46:06.848Z,1.50
2023-01-01T01:48:42.397Z,1.92
2023-01-01T01:51:19.663Z,4.10
2023-01-01T01:53:54.446Z,2.72
2023-01-01T01:56:34.623Z,4.38
2023-01-01T01:59:05.696Z,1.52
2023-01-01T02:01:38.785Z,3.95
2023-01-01T02:04:10.004Z,3.17
2023-01-01T02:06:42.948Z,2.88
2023-01-01T02:09:16.955Z,3.35
2023-01-01T02:11:47.178Z,3.15
2023-01-01T02:14:21.911Z,3.00
2023-01-01T02:17:04.715Z,2.65
2023-01-01T02:19:54.041Z,2.25
2023-01-01T02:22:37.169Z,2.33
2023-01-01T02:25:20.333Z,4.32
2023-01-01T02:28:01.563Z,2.90
2023-01-01T02:30:37.959Z,4.18
2023-01-01T02:33:16.407Z,2.22
2023-01-01T02:35:53.821Z,3.40
2023-01-01T02:38:33.242Z,1.60
2023-01-01T02:41:10.636Z,2.83
2023-01-01T02:43:41.496Z,2.67
2023-01-01T02:48:47.750Z,5.00
2023-01-01T02:51:32.071Z,3.38
2023-01-01T02:54:14.157Z,4.70
2023-01-01T02:56:51.893Z,5.13
2023-01-01T02:59:51.012Z,2.05
2023-01-01T03:02:39.550Z,2.30
2023-01-01T03:05:23.354Z,3.75
2023-01-01T03:08:08.931Z,3.13
2023-01-01T03:10:52.767Z,3.65
2023-01-01T03:13:33.343Z,3.92
2023-01-01T03:16:12.439Z,2.30
2023-01-01T03:19:11.766Z,2.80
2023-01-01T03:21:52.284Z,3.65
2023-01-01T03:24:28.992Z,3.90
2023-01-01T03:27:05.057Z,3.42
2023-01-01T03:29:43.148Z,2.75
2023-01-01T03:32:21.382Z,7.65
2023-01-01T03:34:59.838Z,3.28
2023-01-01T03:37:33.285Z,3.15
2023-01-01T03:40:05.819Z,4.80
2023-01-01T03:42:43.863Z,4.20
2023-01-01T03:45:23.771Z,4.85
2023-01-01T03:47:54.347Z,4.68
2023-01-01T03:50:43.186Z,4.65
2023-01-01T03:53:27.149Z,2.47
2023-01-01T03:56:11.073Z,2.75
2023-01-01T03:58:48.860Z,3.60
2023-01-01T04:01:27.244Z,2.47
2023-01-01T04:03:58.309Z,4.82
2023-01-01T04:06:31.709Z,5.45
2023-01-01T04:09:04.142Z,3.20
2023-01-01T04:11:50.417Z,3.55
2023-01-01T04:14:31.926Z,2.28
2023-01-01T04:17:05.849Z,3.17
2023-01-01T04:19:36.275Z,2.58
2023-01-01T04:22:09.455Z,3.22
2023-01-01T04:24:39.532Z,3.30
2023-01-01T04:27:09.682Z,2.75
2023-01-01T04:29:41.830Z,2.67
2023-01-01T04:32:12.081Z,2.55
2023-01-01T04:34:42.148Z,3.33
2023-01-01T04:37:14.842Z,2.88
2023-01-01T04:39:47.916Z,3.35
2023-01-01T04:42:18.072Z,3.42
2023-01-01T04:44:48.168Z,5.82
2023-01-01T04:47:18.291Z,5.10
2023-01-01T04:49:48.393Z,2.63
2023-01-01T04:52:21.162Z,4.40
2023-01-01T04:54:51.266Z,5.88
2023-01-01T04:57:21.344Z,4.40
2023-01-01T04:59:51.404Z,3.67
2023-01-01T05:02:21.697Z,3.42
2023-01-01T05:04:51.815Z,5.65
2023-01-01T05:07:24.529Z,2.88
2023-01-01T05:09:54.617Z,2.80
2023-01-01T05:12:24.715Z,4.40
2023-01-01T05:14:54.826Z,3.22
2023-01-01T05:17:24.933Z,6.60
2023-01-01T05:19:54.970Z,4.85
2023-01-01T05:22:27.717Z,2.47
2023-01-01T05:24:57.787Z,3.28
2023-01-01T05:27:27.848Z,1.88
2023-01-01T05:29:59.089Z,4.15
2023-01-01T05:32:29.188Z,2.95
2023-01-01T05:34:59.240Z,5.82
2023-01-01T05:37:31.943Z,4.28
2023-01-01T05:40:01.995Z,2.90
2023-01-01T05:42:32.315Z,3.83
2023-01-01T05:45:02.369Z,4.13
2023-01-01T05:47:32.660Z,3.70
2023-01-01T05:52:40.028Z,3.90
2023-01-01T05:55:13.146Z,6.75
2023-01-01T05:57:43.245Z,9.43
2023-01-01T06:00:17.531Z,5.65
2023-01-01T06:02:50.505Z,3.95
2023-01-01T06:05:20.752Z,4.93
2023-01-01T06:07:53.461Z,6.60
2023-01-01T06:10:23.533Z,2.88
2023-01-01T06:12:54.820Z,4.35
2023-01-01T06:15:27.148Z,4.70
2023-01-01T06:17:57.412Z,4.65
2023-01-01T06:20:27.709Z,5.88
2023-01-01T06:23:00.478Z,3.20
2023-01-01T06:25:30.579Z,4.10
2023-01-01T06:28:01.989Z,5.50
2023-01-01T06:30:34.356Z,3.85
2023-01-01T06:33:04.788Z,5.10
2023-01-01T06:35:34.865Z,4.20
2023-01-01T06:38:07.529Z,3.33
2023-01-01T06:40:37.575Z,3.58
2023-01-01T06:43:07.691Z,4.57
2023-01-01T06:45:37.943Z,4.13
2023-01-01T06:48:09.413Z,5.68
2023-01-01T06:50:39.583Z,4.45
2023-01-01T06:53:12.397Z,5.30
2023-01-01T06:55:42.561Z,7.63
2023-01-01T06:58:12.746Z,5.10
2023-01-01T07:00:43.498Z,5.43
2023-01-01T07:03:14.084Z,4.88
2023-01-01T07:05:44.163Z,4.75
2023-01-01T07:08:16.871Z,7.20
2023-01-01T07:10:46.918Z,2.40
2023-01-01T07:13:16.988Z,4.75
2023-01-01T07:15:47.096Z,4.65
2023-01-01T07:18:17.233Z,3.38
2023-01-01T07:20:50.924Z,2.63
2023-01-01T07:23:26.648Z,3.85
2023-01-01T07:25:58.230Z,3.83
2023-01-01T07:28:29.106Z,6.35
2023-01-01T07:30:59.200Z,6.90
2023-01-01T07:33:29.348Z,4.68
2023-01-01T07:35:59.398Z,4.80
2023-01-01T07:38:32.088Z,3.92
2023-01-01T07:41:02.154Z,4.47
2023-01-01T07:43:32.254Z,4.38
2023-01-01T07:46:03.895Z,5.18
2023-01-01T07:48:40.184Z,4.57
2023-01-01T07:51:10.593Z,4.93
2023-01-01T07:53:43.344Z,4.35
2023-01-01T07:56:14.087Z,5.75
2023-01-01T07:58:45.070Z,4.88
2023-01-01T08:01:17.312Z,5.18
2023-01-01T08:03:47.581Z,6.65
2023-01-01T08:06:17.631Z,3.92
2023-01-01T08:08:50.398Z,5.30
2023-01-01T08:11:20.527Z,5.68
2023-01-01T08:13:50.608Z,5.20
2023-01-01T08:16:20.753Z,5.20
2023-01-01T08:18:55.573Z,5.75
2023-01-01T08:21:25.657Z,4.80
2023-01-01T08:23:58.515Z,5.07
2023-01-01T08:26:36.059Z,6.15
2023-01-01T08:29:08.594Z,6.13
2023-01-01T08:31:38.803Z,6.72
2023-01-01T08:34:08.913Z,5.25
2023-01-01T08:36:43.335Z,4.55
2023-01-01T08:39:16.411Z,6.80
2023-01-01T08:41:46.515Z,7.45
2023-01-01T08:44:16.603Z,7.38
2023-01-01T08:46:46.797Z,6.55
2023-01-01T08:49:17.271Z,6.15
2023-01-01T08:51:47.375Z,5.60
2023-01-01T08:54:20.174Z,3.70
2023-01-01T08:56:50.247Z,5.78
2023-01-01T08:59:20.349Z,8.07
2023-01-01T09:01:50.583Z,4.68
2023-01-01T09:04:20.906Z,4.75
2023-01-01T09:06:51.163Z,6.13
2023-01-01T09:09:30.828Z,6.10
2023-01-01T09:12:10.722Z,5.40
2023-01-01T09:14:40.829Z,3.63
2023-01-01T09:17:11.104Z,4.82
2023-01-01T09:19:41.168Z,5.30
2023-01-01T09:22:13.105Z,5.80
2023-01-01T09:24:45.778Z,4.43
2023-01-01T09:27:15.907Z,3.47
2023-01-01T09:29:45.989Z,5.55
2023-01-01T09:32:16.055Z,4.30
2023-01-01T09:34:52.114Z,4.35
2023-01-01T09:37:22.696Z,3.97
2023-01-01T09:39:55.641Z,4.57
2023-01-01T09:42:38.837Z,3.50
2023-01-01T09:45:26.567Z,4.68
2023-01-01T09:48:03.100Z,5.50
2023-01-01T09:50:39.999Z,2.65
2023-01-01T09:53:19.942Z,4.38
2023-01-01T09:55:59.066Z,5.97
2023-01-01T09:58:35.022Z,6.32
2023-01-01T10:01:20.320Z,8.65
2023-01-01T10:04:03.006Z,6.25
2023-01-01T10:06:37.104Z,5.18
2023-01-01T10:09:22.156Z,5.50
2023-01-01T10:12:09.798Z,5.03
2023-01-01T10:14:46.244Z,3.10
2023-01-01T10:17:24.217Z,4.68
2023-01-01T10:20:00.042Z,7.35
2023-01-01T10:22:37.641Z,6.20
2023-01-01T10:25:22.633Z,6.72
2023-01-01T10:28:02.341Z,5.68
2023-01-01T10:30:34.518Z,8.00
2023-01-01T10:33:05.675Z,6.00
2023-01-01T10:35:42.863Z,6.15
2023-01-01T10:38:24.883Z,4.95
2023-01-01T10:41:00.503Z,6.75
2023-01-01T10:43:38.602Z,3.38
2023-01-01T10:46:09.874Z,7.45
2023-01-01T10:48:40.008Z,4.25
2023-01-01T10:51:26.693Z,6.50
2023-01-01T10:53:56.827Z,5.70
2023-01-01T10:56:29.010Z,6.22
2023-01-01T10:59:01.690Z,3.83
2023-01-01T11:01:35.116Z,4.40
2023-01-01T11:04:22.218Z,5.78
2023-01-01T11:06:52.473Z,4.13
2023-01-01T11:09:26.648Z,4.80
2023-01-01T11:12:07.912Z,6.18
2023-01-01T11:14:47.246Z,4.63
2023-01-01T11:17:25.624Z,6.10
2023-01-01T11:20:01.716Z,5.75
2023-01-01T11:22:45.485Z,5.75
2023-01-01T11:25:28.561Z,5.40
2023-01-01T11:28:23.090Z,3.08
2023-01-01T11:31:15.651Z,4.57
2023-01-01T11:33:53.046Z,5.00
2023-01-01T11:36:28.500Z,3.53
2023-01-01T11:39:21.696Z,5.82
2023-01-01T11:41:55.178Z,3.00
2023-01-01T11:44:38.742Z,3.05
2023-01-01T11:47:29.120Z,4.22
2023-01-01T11:50:22.166Z,3.60
2023-01-01T11:52:54.536Z,4.50
2023-01-01T11:55:42.410Z,4.53
2023-01-01T11:58:21.145Z,4.78
2023-01-01T12:00:58.021Z,4.80
2023-01-01T12:03:40.333Z,3.72
2023-01-01T12:06:22.273Z,4.28
2023-01-01T12:09:01.068Z,5.32
2023-01-01T12:11:41.456Z,6.88
2023-01-01T12:14:29.503Z,4.32
2023-01-01T12:17:07.399Z,5.43
2023-01-01T12:19:56.973Z,3.17
2023-01-01T12:22:29.071Z,11.38
2023-01-01T12:25:08.944Z,6.38
2023-01-01T12:28:01.506Z,5.22
2023-01-01T12:30:42.378Z,3.83
2023-01-01T12:33:38.024Z,2.97
2023-01-01T12:36:36.283Z,5.10
2023-01-01T12:40:15.035Z,4.50
2023-01-01T12:43:03.926Z,4.78
2023-01-01T12:46:18.528Z,3.17
2023-01-01T12:49:29.017Z,2.88
2023-01-01T12:52:19.586Z,4.50
2023-01-01T12:55:39.645Z,4.03
2023-01-01T12:58:17.013Z,4.13
2023-01-01T13:01:02.037Z,2.92
2023-01-01T13:03:39.907Z,3.78
2023-01-01T13:06:17.593Z,4.47
2023-01-01T13:08:56.654Z,3.42
2023-01-01T13:11:27.551Z,4.05
2023-01-01T13:13:57.794Z,4.78
2023-01-01T13:16:41.505Z,4.03
2023-01-01T13:19:33.519Z,4.18
2023-01-01T13:22:43.204Z,3.85
2023-01-01T13:25:27.620Z,2.78
2023-01-01T13:28:15.043Z,2.90
2023-01-01T13:30:55.088Z,1.95
2023-01-01T13:33:29.927Z,3.70
2023-01-01T13:36:33.327Z,3.47
2023-01-01T13:39:03.918Z,5.18
2023-01-01T13:41:45.751Z,2.63
2023-01-01T13:44:26.880Z,3.60
2023-01-01T13:47:33.219Z,5.03
2023-01-01T13:50:18.443Z,3.58
2023-01-01T13:53:14.372Z,5.68
2023-01-01T13:56:21.427Z,2.90
2023-01-01T13:59:41.094Z,4.38
2023-01-01T14:02:26.372Z,2.85
2023-01-01T14:05:03.357Z,3.20
2023-01-01T14:07:52.792Z,3.22
2023-01-01T14:10:29.701Z,3.47
2023-01-01T14:13:18.338Z,3.38
2023-01-01T14:15:57.822Z,2.13
2023-01-01T14:18:37.371Z,2.92
2023-01-01T14:21:17.051Z,3.15
2023-01-01T14:23:52.158Z,1.90
2023-01-01T14:26:26.967Z,1.67
2023-01-01T14:28:58.728Z,2.80
2023-01-01T14:31:37.154Z,3.38
2023-01-01T14:34:18.581Z,4.22
2023-01-01T14:36:57.357Z,3.72
2023-01-01T14:39:33.189Z,1.83
2023-01-01T14:42:07.929Z,1.98
2023-01-01T14:44:42.692Z,3.33
2023-01-01T14:47:28.365Z,2.83
2023-01-01T14:50:05.691Z,3.78
2023-01-01T14:52:38.075Z,3.90
2023-01-01T14:55:20.844Z,2.67
2023-01-01T14:58:00.969Z,4.70
2023-01-01T15:00:34.753Z,3.47
2023-01-01T15:03:19.333Z,2.47
2023-01-01T15:06:01.294Z,3.25
2023-01-01T15:08:32.337Z,7.18
2023-01-01T15:11:09.690Z,3.53
2023-01-01T15:13:39.853Z,6.15
2023-01-01T15:16:21.849Z,7.47
2023-01-01T15:18:57.914Z,7.05
2023-01-01T15:21:41.412Z,7.18
2023-01-01T15:24:17.610Z,4.85
2023-01-01T15:26:56.253Z,6.80
2023-01-01T15:29:33.171Z,5.63
2023-01-01T15:32:09.289Z,3.78
2023-01-01T15:34:52.768Z,4.38
2023-01-01T15:37:30.234Z,10.60
2023-01-01T15:40:05.438Z,5.03
2023-01-01T15:42:38.931Z,5.30
2023-01-01T15:45:22.360Z,4.10
2023-01-01T15:47:55.688Z,4.78
2023-01-01T15:50:32.876Z,6.50
2023-01-01T15:53:06.972Z,2.88
2023-01-01T15:55:45.144Z,4.20
2023-01-01T15:58:24.859Z,4.22
2023-01-01T16:01:01.434Z,7.75
2023-01-01T16:03:34.820Z,4.20
2023-01-01T16:06:10.989Z,6.95
2023-01-01T16:08:41.140Z,6.90
2023-01-01T16:11:11.212Z,8.60
2023-01-01T16:13:41.385Z,4.10
2023-01-01T16:16:29.318Z,6.22
2023-01-01T16:19:00.993Z,4.85
2023-01-01T16:21:35.694Z,4.85
2023-01-01T16:24:06.181Z,10.52
2023-01-01T16:26:36.343Z,7.05
2023-01-01T16:29:06.613Z,7.65
2023-01-01T16:31:36.781Z,5.40
2023-01-01T16:34:07.717Z,7.75
2023-01-01T16:36:40.402Z,6.53
2023-01-01T16:39:10.533Z,3.83
2023-01-01T16:41:44.125Z,6.47
2023-01-01T16:44:18.008Z,3.80
2023-01-01T16:46:48.126Z,8.20
2023-01-01T16:49:18.196Z,4.20
2023-01-01T16:51:50.927Z,5.00
2023-01-01T16:54:21.111Z,6.28
2023-01-01T16:56:51.181Z,5.53
2023-01-01T16:59:22.990Z,7.03
2023-01-01T17:01:53.262Z,5.55
2023-01-01T17:04:23.727Z,5.78
2023-01-01T17:06:56.624Z,7.70
2023-01-01T17:09:26.899Z,10.30
2023-01-01T17:11:56.999Z,18.15
2023-01-01T17:14:27.413Z,7.28
2023-01-01T17:16:58.615Z,11.35
2023-01-01T17:19:28.728Z,16.48
2023-01-01T17:22:01.427Z,15.73
2023-01-01T17:24:31.533Z,9.05
2023-01-01T17:27:02.805Z,11.52
2023-01-01T17:29:32.942Z,7.03
2023-01-01T17:32:04.519Z,7.75
2023-01-01T17:34:34.626Z,7.75
2023-01-01T17:37:07.348Z,7.60
2023-01-01T17:39:37.835Z,7.95
2023-01-01T17:42:08.633Z,9.32
2023-01-01T17:44:38.748Z,7.07
2023-01-01T17:47:08.889Z,8.25
2023-01-01T17:49:40.439Z,6.18
2023-01-01T17:52:13.537Z,22.55
2023-01-01T17:54:43.728Z,8.82
2023-01-01T17:57:14.894Z,8.57
2023-01-01T17:59:45.451Z,7.72
2023-01-01T18:02:17.470Z,8.10
2023-01-01T18:04:48.112Z,9.15
2023-01-01T18:07:20.721Z,7.32
2023-01-01T18:09:53.335Z,7.40
2023-01-01T18:12:23.398Z,11.15
2023-01-01T18:14:53.602Z,9.93
2023-01-01T18:17:23.736Z,7.47
2023-01-01T18:19:53.976Z,5.22
2023-01-01T18:22:26.664Z,5.78
2023-01-01T18:24:56.776Z,7.88
2023-01-01T18:27:26.867Z,6.68
2023-01-01T18:29:57.059Z,5.30
2023-01-01T18:32:27.145Z,6.63
2023-01-01T18:34:57.462Z,7.97
2023-01-01T18:37:30.693Z,8.70
2023-01-01T18:40:02.304Z,8.70
2023-01-01T18:42:52.901Z,11.75
2023-01-01T18:45:26.328Z,10.95
2023-01-01T18:47:57.306Z,11.30
2023-01-01T18:50:32.037Z,9.90
2023-01-01T18:53:19.903Z,8.32
2023-01-01T18:55:53.559Z,12.20
2023-01-01T18:58:27.992Z,7.97
2023-01-01T19:00:58.530Z,8.02
2023-01-01T19:03:37.498Z,8.00
2023-01-01T19:06:28.318Z,8.20
2023-01-01T19:09:19.793Z,10.57
2023-01-01T19:11:50.790Z,8.40
2023-01-01T19:14:24.568Z,8.40
2023-01-01T19:17:01.448Z,9.63
2023-01-01T19:19:41.555Z,7.30
2023-01-01T19:22:31.320Z,9.10
2023-01-01T19:25:24.993Z,9.93
2023-01-01T19:27:55.302Z,7.80
2023-01-01T19:30:25.888Z,11.13
2023-01-01T19:32:56.091Z,8.82
2023-01-01T19:35:26.134Z,9.43
2023-01-01T19:37:56.240Z,7.50
2023-01-01T19:40:29.693Z,6.40
2023-01-01T19:43:01.728Z,9.10
2023-01-01T19:45:31.878Z,7.25
2023-01-01T19:48:02.016Z,8.27
2023-01-01T19:50:32.131Z,6.07
2023-01-01T19:53:02.273Z,6.78
2023-01-01T19:55:34.974Z,12.75
2023-01-01T19:58:05.101Z,6.63
2023-01-01T20:00:35.236Z,7.60
2023-01-01T20:03:42.867Z,8.68
2023-01-01T20:05:55.631Z,9.27
2023-01-01T20:08:28.601Z,9.13
2023-01-01T20:11:01.712Z,9.40
2023-01-01T20:13:31.832Z,9.75
2023-01-01T20:16:03.048Z,10.25
2023-01-01T20:18:33.222Z,9.15
2023-01-01T20:21:30.289Z,8.82
2023-01-01T20:24:00.393Z,8.43
2023-01-01T20:26:33.130Z,11.23
2023-01-01T20:29:15.740Z,9.85
2023-01-01T20:31:45.861Z,9.23
2023-01-01T20:34:16.072Z,8.77
2023-01-01T20:36:58.627Z,8.90
2023-01-01T20:39:29.819Z,9.60
2023-01-01T20:42:02.512Z,6.85
2023-01-01T20:44:35.852Z,9.10
2023-01-01T20:47:05.999Z,10.80
2023-01-01T20:49:36.090Z,5.00
2023-01-01T20:52:06.397Z,11.02
2023-01-01T20:54:36.781Z,7.35
2023-01-01T20:57:11.925Z,5.65
2023-01-01T20:59:42.186Z,10.43
2023-01-01T21:02:14.734Z,8.52
2023-01-01T21:04:47.453Z,7.88
2023-01-01T21:07:17.565Z,9.57
2023-01-01T21:09:47.691Z,7.60
2023-01-01T21:12:20.326Z,9.55
2023-01-01T21:14:50.632Z,9.00
2023-01-01T21:17:27.914Z,8.15
2023-01-01T21:20:01.348Z,9.30
2023-01-01T21:22:32.523Z,11.20
2023-01-01T21:25:49.764Z,10.82
2023-01-01T21:28:15.866Z,9.93
2023-01-01T21:30:54.171Z,10.57
2023-01-01T21:33:30.529Z,8.82
2023-01-01T21:36:02.557Z,10.27
2023-01-01T21:38:35.491Z,12.80
2023-01-01T21:41:05.626Z,8.48
2023-01-01T21:43:42.368Z,10.50
2023-01-01T21:46:28.881Z,8.23
2023-01-01T21:49:03.134Z,7.72
2023-01-01T21:51:48.867Z,7.13
2023-01-01T21:54:28.733Z,7.18
2023-01-01T21:57:03.128Z,6.95
2023-01-01T21:59:45.016Z,9.02
2023-01-01T22:02:41.500Z,8.13
2023-01-01T22:05:37.619Z,7.38
2023-01-01T22:08:27.621Z,6.85
2023-01-01T22:11:02.211Z,8.15
2023-01-01T22:13:32.373Z,11.43
2023-01-01T22:16:07.729Z,9.27
2023-01-01T22:18:43.028Z,7.15
2023-01-01T22:21:20.819Z,9.85
2023-01-01T22:23:51.860Z,7.30
2023-01-01T22:26:27.782Z,6.78
2023-01-01T22:29:05.390Z,9.25
2023-01-01T22:31:45.382Z,6.70
2023-01-01T22:34:26.511Z,11.00
2023-01-01T22:37:00.056Z,6.07
2023-01-01T22:39:37.689Z,8.05
2023-01-01T22:42:07.916Z,8.18
2023-01-01T22:44:45.467Z,7.55
2023-01-01T22:47:20.306Z,11.45
2023-01-01T22:49:53.762Z,8.48
2023-01-01T22:52:23.955Z,8.68
2023-01-01T22:54:54.049Z,8.45
2023-01-01T22:57:24.233Z,10.07
2023-01-01T22:59:56.596Z,6.97
2023-01-01T23:02:31.583Z,9.38
2023-01-01T23:05:01.741Z,7.28
2023-01-01T23:07:36.614Z,10.15
2023-01-01T23:10:13.023Z,9.23
2023-01-01T23:12:43.542Z,6.90
2023-01-01T23:15:27.781Z,9.48
2023-01-01T23:18:00.483Z,9.23
2023-01-01T23:20:30.783Z,10.57
2023-01-01T23:23:01.213Z,9.77
2023-01-01T23:25:31.624Z,9.55
2023-01-01T23:28:01.784Z,9.63
2023-01-01T23:30:31.923Z,7.22
2023-01-01T23:33:04.877Z,7.22
2023-01-01T23:35:35.236Z,8.27
2023-01-01T23:38:05.549Z,7.53
2023-01-01T23:40:35.660Z,6.55
2023-01-01T23:43:06.029Z,8.20
2023-01-01T23:45:38.136Z,8.52
2023-01-01T23:48:12.587Z,7.97
2023-01-01T23:50:43.200Z,5.78
2023-01-01T23:53:13.293Z,6.85
2023-01-01T23:55:44.737Z,6.95
2023-01-01T23:58:14.833Z,8.35
